createdAt,value
2023-01-09T00:00:46.443Z,145.90
2023-01-09T00:01:46.401Z,139.90
2023-01-09T00:02:46.469Z,146.10
2023-01-09T00:03:46.424Z,150.40
2023-01-09T00:04:46.381Z,153.00
2023-01-09T00:05:46.379Z,152.20
2023-01-09T00:06:46.360Z,156.90
2023-01-09T00:07:46.343Z,163.10
2023-01-09T00:08:46.351Z,168.10
2023-01-09T00:09:46.305Z,160.80
2023-01-09T00:10:46.361Z,159.00
2023-01-09T00:11:46.308Z,151.70
2023-01-09T00:12:46.284Z,153.00
2023-01-09T00:13:46.274Z,146.70
2023-01-09T00:14:46.283Z,150.70
2023-01-09T00:15:46.276Z,155.00
2023-01-09T00:16:46.402Z,161.70
2023-01-09T00:17:47.273Z,153.80
2023-01-09T00:18:46.781Z,155.60
2023-01-09T00:19:46.219Z,149.90
2023-01-09T00:20:46.245Z,158.20
2023-01-09T00:21:46.236Z,149.60
2023-01-09T00:22:46.180Z,142.10
2023-01-09T00:23:46.217Z,142.70
2023-01-09T00:24:46.215Z,144.30
2023-01-09T00:25:46.201Z,145.10
2023-01-09T00:26:46.166Z,146.80
2023-01-09T00:27:46.211Z,144.30
2023-01-09T00:28:46.123Z,148.10
2023-01-09T00:29:46.131Z,150.80
2023-01-09T00:30:46.204Z,149.90
2023-01-09T00:31:46.096Z,145.50
2023-01-09T00:32:46.084Z,146.10
2023-01-09T00:33:46.071Z,141.60
2023-01-09T00:34:46.073Z,143.60
2023-01-09T00:35:46.108Z,138.70
2023-01-09T00:36:46.049Z,140.50
2023-01-09T00:37:46.029Z,141.70
2023-01-09T00:38:46.037Z,143.40
2023-01-09T00:39:46.008Z,138.30
2023-01-09T00:40:46.045Z,141.00
2023-01-09T00:41:46.004Z,142.40
2023-01-09T00:42:45.991Z,139.00
2023-01-09T00:43:45.980Z,139.90
2023-01-09T00:44:46.013Z,140.70
2023-01-09T00:45:46.070Z,141.10
2023-01-09T00:46:45.944Z,140.40
2023-01-09T00:47:45.933Z,147.80
2023-01-09T00:48:45.941Z,144.90
2023-01-09T00:49:45.925Z,141.60
2023-01-09T00:50:45.905Z,137.80
2023-01-09T00:51:45.949Z,137.40
2023-01-09T00:52:46.079Z,134.60
2023-01-09T00:53:45.898Z,134.90
2023-01-09T00:54:46.067Z,134.60
2023-01-09T00:55:45.851Z,129.40
2023-01-09T00:56:46.031Z,126.00
2023-01-09T00:57:46.008Z,117.60
2023-01-09T00:58:45.831Z,120.30
2023-01-09T00:59:46.667Z,116.10
2023-01-09T01:00:45.805Z,101.90
2023-01-09T01:01:46.055Z,89.10
2023-01-09T01:02:45.824Z,78.10
2023-01-09T01:03:45.770Z,65.10
2023-01-09T01:04:46.028Z,64.60
2023-01-09T01:05:45.753Z,55.50
2023-01-09T01:06:46.184Z,52.80
2023-01-09T01:07:45.854Z,48.80
2023-01-09T01:08:45.724Z,47.80
2023-01-09T01:09:45.739Z,42.70
2023-01-09T01:10:45.772Z,45.30
2023-01-09T01:11:45.704Z,43.10
2023-01-09T01:12:45.673Z,44.50
2023-01-09T01:13:45.680Z,47.50
2023-01-09T01:14:45.658Z,51.60
2023-01-09T01:15:45.649Z,46.20
2023-01-09T01:16:45.682Z,40.50
2023-01-09T01:17:45.635Z,40.80
2023-01-09T01:18:45.615Z,42.00
2023-01-09T01:19:45.615Z,40.90
2023-01-09T01:20:45.593Z,43.10
2023-01-09T01:21:53.399Z,42.20
2023-01-09T01:22:45.603Z,43.40
2023-01-09T01:23:45.557Z,40.00
2023-01-09T01:24:45.553Z,45.20
2023-01-09T01:25:52.064Z,45.90
2023-01-09T01:26:53.432Z,52.90
2023-01-09T01:27:45.531Z,50.30
2023-01-09T01:28:45.518Z,48.30
2023-01-09T01:29:45.497Z,44.00
2023-01-09T01:30:45.549Z,42.30
2023-01-09T01:31:45.538Z,41.00
2023-01-09T01:32:45.486Z,47.20
2023-01-09T01:33:45.467Z,48.10
2023-01-09T01:34:47.536Z,55.30
2023-01-09T01:35:45.434Z,49.80
2023-01-09T01:36:45.469Z,50.60
2023-01-09T01:37:45.420Z,57.00
2023-01-09T01:38:45.450Z,51.10
2023-01-09T01:39:45.420Z,48.10
2023-01-09T01:40:45.388Z,46.20
2023-01-09T01:41:45.401Z,52.60
2023-01-09T01:42:45.377Z,45.30
2023-01-09T01:43:45.351Z,46.00
2023-01-09T01:44:45.344Z,42.70
2023-01-09T01:45:45.376Z,44.70
2023-01-09T01:46:45.361Z,47.50
2023-01-09T01:47:45.328Z,48.40
2023-01-09T01:48:45.305Z,50.40
2023-01-09T01:49:45.295Z,52.80
2023-01-09T01:50:45.292Z,60.90
2023-01-09T01:51:45.292Z,55.50
2023-01-09T01:52:45.275Z,56.60
2023-01-09T01:53:45.261Z,56.80
2023-01-09T01:54:45.246Z,60.50
2023-01-09T01:55:45.236Z,65.00
2023-01-09T01:56:45.252Z,67.40
2023-01-09T01:57:45.241Z,65.40
2023-01-09T01:58:45.210Z,74.80
2023-01-09T01:59:45.188Z,73.60
2023-01-09T02:00:45.174Z,75.00
2023-01-09T02:01:45.276Z,70.10
2023-01-09T02:02:45.235Z,74.50
2023-01-09T02:03:45.156Z,77.60
2023-01-09T02:04:45.134Z,78.20
2023-01-09T02:05:51.621Z,74.10
2023-01-09T02:06:53.991Z,65.00
2023-01-09T02:07:51.623Z,58.10
2023-01-09T02:08:51.615Z,54.30
2023-01-09T02:09:45.085Z,56.70
2023-01-09T02:10:45.077Z,57.50
2023-01-09T02:11:45.069Z,54.20
2023-01-09T02:12:45.109Z,46.40
2023-01-09T02:13:45.048Z,44.90
2023-01-09T02:14:45.043Z,43.60
2023-01-09T02:15:45.060Z,42.30
2023-01-09T02:16:45.025Z,44.20
2023-01-09T02:17:45.031Z,37.20
2023-01-09T02:18:44.996Z,37.10
2023-01-09T02:19:44.995Z,33.80
2023-01-09T02:20:44.978Z,27.70
2023-01-09T02:21:44.984Z,31.10
2023-01-09T02:22:44.971Z,32.90
2023-01-09T02:23:44.944Z,35.60
2023-01-09T02:24:44.948Z,36.30
2023-01-09T02:25:44.946Z,24.30
2023-01-09T02:26:44.911Z,25.60
2023-01-09T02:27:44.976Z,31.00
2023-01-09T02:28:44.896Z,25.90
2023-01-09T02:29:44.878Z,23.80
2023-01-09T02:30:44.878Z,26.50
2023-01-09T02:31:44.905Z,24.60
2023-01-09T02:32:44.884Z,22.40
2023-01-09T02:33:44.846Z,20.30
2023-01-09T02:34:44.836Z,13.10
2023-01-09T02:35:44.840Z,16.50
2023-01-09T02:36:44.806Z,12.10
2023-01-09T02:37:44.830Z,12.20
2023-01-09T02:38:44.789Z,10.30
2023-01-09T02:39:44.836Z,12.60
2023-01-09T02:40:44.768Z,12.90
2023-01-09T02:41:44.774Z,12.60
2023-01-09T02:42:44.765Z,9.90
2023-01-09T02:43:44.746Z,9.90
2023-01-09T02:44:44.726Z,10.90
2023-01-09T02:45:44.742Z,10.00
2023-01-09T02:46:44.713Z,10.10
2023-01-09T02:47:44.725Z,13.90
2023-01-09T02:48:44.707Z,20.20
2023-01-09T02:49:44.682Z,20.20
2023-01-09T02:50:44.665Z,21.10
2023-01-09T02:51:44.667Z,17.80
2023-01-09T02:52:44.668Z,15.20
2023-01-09T02:53:44.648Z,15.20
2023-01-09T02:54:44.648Z,17.20
2023-01-09T02:55:44.629Z,14.40
2023-01-09T02:56:44.609Z,14.40
2023-01-09T02:57:44.622Z,12.50
2023-01-09T02:58:44.582Z,16.10
2023-01-09T02:59:44.601Z,13.70
2023-01-09T03:00:44.621Z,13.10
2023-01-09T03:01:44.698Z,11.50
2023-01-09T03:02:44.639Z,12.30
2023-01-09T03:03:44.536Z,12.00
2023-01-09T03:04:44.601Z,13.00
2023-01-09T03:05:44.522Z,11.80
2023-01-09T03:06:44.498Z,12.90
2023-01-09T03:07:44.515Z,15.40
2023-01-09T03:08:44.490Z,12.20
2023-01-09T03:09:51.005Z,13.80
2023-01-09T03:10:50.950Z,18.50
2023-01-09T03:11:44.450Z,15.50
2023-01-09T03:12:44.467Z,16.80
2023-01-09T03:13:44.448Z,16.00
2023-01-09T03:14:44.436Z,15.60
2023-01-09T03:15:44.434Z,16.80
2023-01-09T03:16:44.397Z,16.80
2023-01-09T03:17:44.427Z,17.10
2023-01-09T03:18:44.385Z,17.90
2023-01-09T03:19:44.391Z,18.90
2023-01-09T03:20:44.356Z,18.90
2023-01-09T03:21:44.383Z,20.80
2023-01-09T03:22:44.361Z,20.70
2023-01-09T03:23:44.330Z,21.00
2023-01-09T03:24:44.337Z,18.10
2023-01-09T03:25:44.317Z,14.00
2023-01-09T03:26:44.296Z,14.20
2023-01-09T03:27:44.312Z,14.40
2023-01-09T03:28:44.312Z,10.60
2023-01-09T03:29:44.274Z,11.90
2023-01-09T03:30:44.272Z,12.30
2023-01-09T03:31:44.284Z,10.30
2023-01-09T03:32:44.264Z,8.50
2023-01-09T03:33:44.244Z,12.00
2023-01-09T03:34:44.226Z,11.30
2023-01-09T03:35:44.231Z,10.50
2023-01-09T03:36:44.195Z,9.50
2023-01-09T03:37:44.210Z,10.80
2023-01-09T03:38:44.204Z,8.90
2023-01-09T03:39:44.184Z,9.50
2023-01-09T03:40:44.161Z,11.20
2023-01-09T03:41:44.147Z,8.70
2023-01-09T03:42:44.178Z,9.20
2023-01-09T03:43:44.145Z,8.30
2023-01-09T03:44:44.123Z,8.70
2023-01-09T03:45:44.129Z,10.00
2023-01-09T03:46:44.111Z,11.10
2023-01-09T03:47:44.133Z,9.90
2023-01-09T03:48:44.085Z,10.50
2023-01-09T03:49:44.075Z,10.60
2023-01-09T03:50:44.067Z,15.20
2023-01-09T03:51:44.057Z,17.70
2023-01-09T03:52:44.061Z,19.10
2023-01-09T03:53:44.053Z,19.80
2023-01-09T03:54:44.053Z,14.80
2023-01-09T03:55:44.013Z,10.80
2023-01-09T03:56:44.006Z,10.70
2023-01-09T03:57:44.011Z,13.10
2023-01-09T03:58:44.004Z,10.40
2023-01-09T03:59:43.969Z,12.40
2023-01-09T04:00:43.973Z,13.10
2023-01-09T04:01:44.059Z,13.70
2023-01-09T04:02:43.939Z,14.50
2023-01-09T04:03:43.991Z,12.30
2023-01-09T04:04:43.960Z,12.60
2023-01-09T04:05:43.935Z,13.20
2023-01-09T04:06:43.902Z,13.90
2023-01-09T04:07:43.888Z,14.50
2023-01-09T04:08:43.912Z,13.30
2023-01-09T04:09:43.826Z,12.40
2023-01-09T04:10:43.857Z,15.00
2023-01-09T04:11:43.862Z,12.30
2023-01-09T04:12:43.845Z,12.00
2023-01-09T04:13:43.847Z,10.70
2023-01-09T04:14:43.827Z,9.60
2023-01-09T04:15:43.800Z,10.10
2023-01-09T04:16:43.848Z,9.90
2023-01-09T04:17:43.790Z,6.80
2023-01-09T04:18:43.834Z,8.50
2023-01-09T04:19:43.776Z,8.10
2023-01-09T04:20:43.759Z,9.50
2023-01-09T04:21:43.740Z,9.80
2023-01-09T04:22:43.762Z,9.50
2023-01-09T04:23:43.765Z,7.60
2023-01-09T04:24:43.737Z,8.60
2023-01-09T04:25:43.719Z,7.30
2023-01-09T04:26:43.709Z,7.10
2023-01-09T04:27:50.414Z,8.00
2023-01-09T04:28:50.181Z,7.40
2023-01-09T04:29:50.197Z,6.80
2023-01-09T04:30:50.158Z,8.10
2023-01-09T04:31:43.660Z,6.90
2023-01-09T04:32:43.659Z,7.40
2023-01-09T04:33:43.658Z,7.10
2023-01-09T04:34:43.621Z,8.50
2023-01-09T04:35:43.606Z,8.20
2023-01-09T04:36:43.595Z,8.10
2023-01-09T04:37:51.111Z,9.30
2023-01-09T04:38:43.613Z,8.00
2023-01-09T04:39:43.592Z,7.10
2023-01-09T04:40:43.555Z,7.70
2023-01-09T04:41:43.650Z,7.30
2023-01-09T04:42:43.540Z,7.10
2023-01-09T04:43:43.539Z,8.10
2023-01-09T04:44:43.527Z,8.40
2023-01-09T04:45:43.652Z,8.10
2023-01-09T04:46:43.488Z,7.20
2023-01-09T04:47:43.494Z,8.40
2023-01-09T04:48:43.497Z,8.90
2023-01-09T04:49:43.461Z,7.00
2023-01-09T04:50:43.472Z,7.10
2023-01-09T04:51:43.449Z,8.90
2023-01-09T04:52:43.463Z,7.70
2023-01-09T04:53:43.440Z,6.80
2023-01-09T04:54:43.425Z,7.10
2023-01-09T04:55:43.404Z,9.10
2023-01-09T04:56:43.398Z,9.70
2023-01-09T04:57:43.382Z,9.10
2023-01-09T04:58:43.408Z,7.70
2023-01-09T04:59:43.387Z,9.00
2023-01-09T05:00:43.359Z,7.60
2023-01-09T05:01:43.484Z,7.80
2023-01-09T05:02:43.341Z,8.50
2023-01-09T05:03:43.360Z,8.90
2023-01-09T05:04:43.324Z,8.70
2023-01-09T05:05:43.296Z,8.60
2023-01-09T05:06:43.301Z,8.80
2023-01-09T05:07:43.290Z,8.70
2023-01-09T05:08:43.275Z,8.90
2023-01-09T05:09:43.287Z,7.40
2023-01-09T05:10:43.263Z,9.00
2023-01-09T05:11:43.242Z,9.50
2023-01-09T05:12:43.244Z,8.90
2023-01-09T05:13:43.220Z,7.70
2023-01-09T05:14:43.231Z,9.80
2023-01-09T05:15:43.213Z,8.30
2023-01-09T05:16:43.271Z,8.80
2023-01-09T05:17:43.178Z,7.00
2023-01-09T05:18:43.174Z,9.40
2023-01-09T05:19:43.177Z,9.10
2023-01-09T05:20:43.147Z,10.60
2023-01-09T05:21:43.147Z,11.20
2023-01-09T05:22:43.137Z,11.00
2023-01-09T05:23:43.148Z,11.80
2023-01-09T05:24:43.138Z,9.70
2023-01-09T05:25:43.099Z,11.50
2023-01-09T05:26:43.091Z,15.70
2023-01-09T05:27:43.080Z,14.40
2023-01-09T05:28:43.080Z,14.50
2023-01-09T05:29:43.081Z,12.10
2023-01-09T05:30:43.054Z,10.60
2023-01-09T05:31:43.113Z,11.10
2023-01-09T05:32:43.033Z,10.50
2023-01-09T05:33:43.020Z,12.30
2023-01-09T05:34:43.043Z,11.00
2023-01-09T05:35:49.483Z,10.00
2023-01-09T05:36:42.998Z,12.40
2023-01-09T05:37:49.471Z,12.10
2023-01-09T05:38:49.464Z,9.90
2023-01-09T05:39:50.637Z,10.60
2023-01-09T05:40:49.432Z,8.80
2023-01-09T05:41:42.932Z,7.90
2023-01-09T05:42:42.929Z,8.60
2023-01-09T05:43:42.923Z,7.70
2023-01-09T05:44:42.934Z,5.50
2023-01-09T05:45:42.923Z,7.80
2023-01-09T05:46:42.901Z,8.30
2023-01-09T05:47:42.866Z,10.40
2023-01-09T05:48:42.864Z,7.60
2023-01-09T05:49:42.874Z,6.30
2023-01-09T05:50:42.900Z,5.70
2023-01-09T05:51:42.841Z,8.30
2023-01-09T05:52:42.831Z,8.00
2023-01-09T05:53:42.813Z,7.20
2023-01-09T05:54:42.835Z,7.90
2023-01-09T05:55:42.794Z,10.40
2023-01-09T05:56:42.819Z,10.00
2023-01-09T05:57:42.781Z,15.90
2023-01-09T05:58:42.765Z,13.60
2023-01-09T05:59:42.768Z,10.80
2023-01-09T06:00:42.752Z,7.50
2023-01-09T06:01:42.814Z,7.80
2023-01-09T06:02:42.866Z,6.50
2023-01-09T06:03:42.725Z,8.40
2023-01-09T06:04:42.725Z,8.70
2023-01-09T06:05:42.689Z,7.20
2023-01-09T06:06:42.676Z,9.50
2023-01-09T06:07:42.683Z,11.40
2023-01-09T06:08:42.657Z,9.10
2023-01-09T06:09:42.674Z,8.00
2023-01-09T06:10:42.651Z,7.50
2023-01-09T06:11:42.653Z,7.50
2023-01-09T06:12:42.615Z,6.50
2023-01-09T06:13:42.625Z,8.70
2023-01-09T06:14:42.641Z,8.70
2023-01-09T06:15:42.685Z,7.60
2023-01-09T06:16:42.593Z,7.40
2023-01-09T06:17:42.606Z,8.50
2023-01-09T06:18:42.575Z,6.30
2023-01-09T06:19:42.592Z,6.00
2023-01-09T06:20:42.542Z,5.60
2023-01-09T06:21:42.528Z,7.60
2023-01-09T06:22:42.517Z,7.20
2023-01-09T06:23:42.525Z,9.00
2023-01-09T06:24:42.514Z,8.90
2023-01-09T06:25:42.515Z,6.20
2023-01-09T06:26:42.485Z,5.60
2023-01-09T06:27:42.491Z,5.90
2023-01-09T06:28:44.551Z,8.60
2023-01-09T06:29:42.450Z,10.00
2023-01-09T06:30:42.474Z,11.40
2023-01-09T06:31:42.435Z,11.50
2023-01-09T06:32:42.421Z,8.20
2023-01-09T06:33:42.409Z,6.00
2023-01-09T06:34:42.427Z,5.50
2023-01-09T06:35:42.416Z,7.20
2023-01-09T06:36:42.377Z,9.30
2023-01-09T06:37:42.376Z,14.30
2023-01-09T06:38:42.353Z,11.10
2023-01-09T06:39:42.349Z,12.50
2023-01-09T06:40:42.410Z,13.80
2023-01-09T06:41:42.328Z,14.80
2023-01-09T06:42:42.313Z,11.80
2023-01-09T06:43:42.318Z,12.00
2023-01-09T06:44:42.289Z,12.40
2023-01-09T06:45:42.339Z,11.00
2023-01-09T06:46:42.278Z,11.40
2023-01-09T06:47:42.297Z,9.50
2023-01-09T06:48:42.252Z,14.10
2023-01-09T06:49:48.757Z,15.40
2023-01-09T06:50:50.191Z,7.10
2023-01-09T06:51:48.741Z,8.80
2023-01-09T06:52:48.711Z,10.40
2023-01-09T06:53:42.219Z,11.50
2023-01-09T06:54:42.199Z,9.70
2023-01-09T06:55:42.241Z,9.00
2023-01-09T06:56:42.201Z,9.20
2023-01-09T06:57:42.169Z,11.50
2023-01-09T06:58:42.163Z,10.50
2023-01-09T06:59:42.187Z,7.30
2023-01-09T07:00:42.149Z,6.30
2023-01-09T07:01:42.281Z,7.80
2023-01-09T07:02:42.109Z,10.50
2023-01-09T07:03:42.146Z,9.30
2023-01-09T07:04:42.110Z,7.60
2023-01-09T07:05:42.118Z,6.00
2023-01-09T07:06:42.069Z,7.70
2023-01-09T07:07:42.105Z,8.00
2023-01-09T07:08:42.021Z,13.90
2023-01-09T07:09:41.992Z,11.20
2023-01-09T07:10:42.049Z,13.50
2023-01-09T07:11:41.999Z,11.10
2023-01-09T07:12:41.959Z,14.40
2023-01-09T07:13:41.966Z,12.40
2023-01-09T07:14:41.978Z,17.70
2023-01-09T07:15:42.205Z,14.60
2023-01-09T07:16:41.952Z,10.70
2023-01-09T07:17:41.921Z,10.60
2023-01-09T07:18:41.900Z,14.10
2023-01-09T07:19:42.078Z,11.20
2023-01-09T07:20:41.918Z,12.90
2023-01-09T07:21:41.881Z,15.00
2023-01-09T07:22:41.860Z,15.00
2023-01-09T07:23:41.869Z,10.90
2023-01-09T07:24:41.858Z,11.80
2023-01-09T07:25:41.863Z,13.00
2023-01-09T07:26:43.342Z,9.50
2023-01-09T07:27:41.840Z,8.30
2023-01-09T07:28:41.793Z,13.10
2023-01-09T07:29:41.795Z,14.50
2023-01-09T07:30:41.810Z,16.90
2023-01-09T07:31:41.857Z,15.20
2023-01-09T07:32:41.771Z,8.50
2023-01-09T07:33:41.782Z,9.70
2023-01-09T07:34:41.745Z,12.80
2023-01-09T07:35:41.766Z,15.20
2023-01-09T07:36:41.711Z,12.20
2023-01-09T07:37:41.755Z,11.20
2023-01-09T07:38:41.696Z,8.40
2023-01-09T07:39:41.689Z,7.00
2023-01-09T07:40:41.707Z,8.70
2023-01-09T07:41:41.675Z,10.90
2023-01-09T07:42:41.684Z,14.80
2023-01-09T07:43:41.679Z,18.60
2023-01-09T07:44:41.657Z,18.70
2023-01-09T07:45:41.672Z,24.40
2023-01-09T07:46:41.699Z,26.90
2023-01-09T07:47:41.609Z,17.80
2023-01-09T07:48:41.588Z,11.80
2023-01-09T07:49:41.586Z,15.80
2023-01-09T07:50:49.731Z,22.00
2023-01-09T07:51:41.580Z,20.30
2023-01-09T07:52:41.561Z,19.30
2023-01-09T07:53:49.360Z,15.10
2023-01-09T07:54:41.587Z,16.80
2023-01-09T07:55:41.538Z,21.10
2023-01-09T07:56:41.528Z,20.70
2023-01-09T07:57:41.545Z,22.20
2023-01-09T07:58:41.507Z,24.60
2023-01-09T07:59:41.492Z,24.10
2023-01-09T08:00:41.493Z,24.70
2023-01-09T08:01:41.679Z,26.20
2023-01-09T08:02:41.531Z,24.80
2023-01-09T08:03:41.487Z,19.00
2023-01-09T08:04:41.444Z,22.70
2023-01-09T08:05:41.456Z,28.10
2023-01-09T08:06:41.458Z,19.70
2023-01-09T08:07:41.458Z,16.90
2023-01-09T08:08:41.492Z,13.70
2023-01-09T08:09:41.410Z,17.10
2023-01-09T08:10:41.402Z,13.60
2023-01-09T08:11:41.403Z,13.30
2023-01-09T08:12:41.405Z,16.00
2023-01-09T08:13:41.383Z,16.50
2023-01-09T08:14:41.363Z,17.20
2023-01-09T08:15:41.337Z,20.40
2023-01-09T08:16:41.337Z,25.10
2023-01-09T08:17:41.333Z,19.70
2023-01-09T08:18:41.334Z,14.90
2023-01-09T08:19:41.313Z,16.90
2023-01-09T08:20:41.302Z,13.90
2023-01-09T08:21:41.309Z,14.60
2023-01-09T08:22:41.280Z,12.10
2023-01-09T08:23:41.346Z,21.40
2023-01-09T08:24:41.274Z,21.90
2023-01-09T08:25:41.257Z,18.70
2023-01-09T08:26:41.244Z,12.60
2023-01-09T08:27:41.230Z,15.40
2023-01-09T08:28:48.783Z,16.60
2023-01-09T08:29:47.686Z,23.40
2023-01-09T08:30:41.179Z,19.10
2023-01-09T08:31:41.219Z,25.60
2023-01-09T08:32:41.223Z,25.20
2023-01-09T08:33:41.149Z,28.40
2023-01-09T08:34:41.153Z,24.90
2023-01-09T08:35:41.138Z,24.70
2023-01-09T08:36:41.135Z,19.50
2023-01-09T08:37:41.102Z,22.20
2023-01-09T08:38:41.127Z,17.00
2023-01-09T08:39:41.108Z,22.40
2023-01-09T08:40:41.094Z,25.60
2023-01-09T08:41:41.096Z,29.80
2023-01-09T08:42:41.052Z,33.50
2023-01-09T08:43:41.044Z,28.30
2023-01-09T08:44:41.031Z,19.30
2023-01-09T08:45:41.053Z,20.20
2023-01-09T08:46:41.098Z,24.10
2023-01-09T08:47:41.011Z,17.10
2023-01-09T08:48:40.991Z,18.60
2023-01-09T08:49:41.048Z,20.00
2023-01-09T08:50:40.973Z,21.50
2023-01-09T08:51:40.983Z,25.40
2023-01-09T08:52:40.992Z,22.00
2023-01-09T08:53:40.953Z,25.10
2023-01-09T08:54:41.010Z,29.50
2023-01-09T08:55:40.934Z,21.50
2023-01-09T08:56:40.924Z,18.40
2023-01-09T08:57:40.921Z,19.00
2023-01-09T08:58:40.902Z,11.80
2023-01-09T08:59:40.894Z,10.80
2023-01-09T09:00:40.867Z,10.80
2023-01-09T09:01:40.903Z,12.20
2023-01-09T09:02:40.889Z,16.10
2023-01-09T09:03:40.841Z,14.80
2023-01-09T09:04:40.872Z,16.60
2023-01-09T09:05:40.839Z,14.00
2023-01-09T09:06:40.815Z,11.90
2023-01-09T09:07:40.823Z,15.50
2023-01-09T09:08:40.790Z,16.60
2023-01-09T09:09:40.795Z,16.20
2023-01-09T09:10:40.799Z,17.20
2023-01-09T09:11:47.262Z,23.60
2023-01-09T09:12:48.322Z,11.80
2023-01-09T09:13:40.736Z,13.60
2023-01-09T09:14:40.732Z,15.40
2023-01-09T09:15:40.787Z,12.20
2023-01-09T09:16:40.707Z,16.10
2023-01-09T09:17:40.747Z,17.00
2023-01-09T09:18:40.686Z,23.50
2023-01-09T09:19:40.694Z,32.20
2023-01-09T09:20:40.687Z,25.40
2023-01-09T09:21:40.662Z,28.50
2023-01-09T09:22:40.684Z,22.90
2023-01-09T09:23:40.670Z,27.30
2023-01-09T09:24:40.628Z,22.80
2023-01-09T09:25:40.629Z,21.70
2023-01-09T09:26:41.090Z,19.60
2023-01-09T09:27:40.659Z,26.20
2023-01-09T09:28:40.601Z,24.20
2023-01-09T09:29:40.577Z,22.30
2023-01-09T09:30:40.571Z,27.40
2023-01-09T09:31:40.565Z,33.10
2023-01-09T09:32:40.607Z,33.30
2023-01-09T09:33:40.538Z,29.80
2023-01-09T09:34:40.529Z,19.40
2023-01-09T09:35:40.529Z,22.90
2023-01-09T09:36:40.575Z,25.10
2023-01-09T09:37:40.542Z,21.70
2023-01-09T09:38:40.485Z,32.40
2023-01-09T09:39:40.517Z,39.70
2023-01-09T09:40:40.469Z,31.00
2023-01-09T09:41:40.465Z,25.10
2023-01-09T09:42:40.467Z,19.20
2023-01-09T09:43:42.571Z,20.10
2023-01-09T09:44:43.713Z,19.30
2023-01-09T09:45:40.422Z,16.10
2023-01-09T09:46:40.432Z,24.60
2023-01-09T09:47:40.420Z,22.30
2023-01-09T09:48:40.407Z,22.70
2023-01-09T09:49:40.385Z,26.40
2023-01-09T09:50:40.371Z,22.20
2023-01-09T09:51:40.364Z,20.20
2023-01-09T09:52:40.338Z,20.50
2023-01-09T09:53:40.384Z,16.90
2023-01-09T09:54:40.329Z,15.80
2023-01-09T09:55:40.381Z,17.50
2023-01-09T09:56:40.297Z,19.10
2023-01-09T09:57:40.297Z,23.60
2023-01-09T09:58:40.312Z,22.30
2023-01-09T09:59:40.292Z,22.40
2023-01-09T10:00:40.325Z,20.50
2023-01-09T10:01:40.275Z,32.70
2023-01-09T10:02:40.344Z,30.30
2023-01-09T10:03:40.338Z,26.10
2023-01-09T10:04:40.225Z,21.20
2023-01-09T10:05:40.240Z,18.50
2023-01-09T10:06:40.216Z,13.20
2023-01-09T10:07:40.594Z,14.20
2023-01-09T10:08:47.828Z,19.50
2023-01-09T10:09:46.694Z,22.60
2023-01-09T10:10:46.701Z,18.60
2023-01-09T10:11:46.683Z,20.60
2023-01-09T10:12:46.648Z,20.90
2023-01-09T10:13:47.907Z,20.70
2023-01-09T10:14:46.623Z,14.70
2023-01-09T10:15:47.942Z,15.60
2023-01-09T10:16:40.111Z,19.00
2023-01-09T10:17:40.099Z,16.00
2023-01-09T10:18:40.129Z,16.70
2023-01-09T10:19:40.080Z,19.30
2023-01-09T10:20:40.091Z,24.90
2023-01-09T10:21:40.066Z,13.80
2023-01-09T10:22:40.096Z,13.90
2023-01-09T10:23:40.051Z,14.80
2023-01-09T10:24:40.031Z,18.60
2023-01-09T10:25:40.043Z,19.10
2023-01-09T10:26:40.022Z,22.00
2023-01-09T10:27:40.005Z,28.60
2023-01-09T10:28:40.067Z,25.10
2023-01-09T10:29:41.569Z,28.00
2023-01-09T10:30:39.992Z,31.00
2023-01-09T10:31:40.065Z,31.90
2023-01-09T10:32:39.946Z,23.00
2023-01-09T10:33:39.983Z,22.60
2023-01-09T10:34:39.918Z,24.40
2023-01-09T10:35:47.794Z,22.10
2023-01-09T10:36:39.971Z,15.40
2023-01-09T10:37:39.899Z,17.70
2023-01-09T10:38:39.906Z,14.10
2023-01-09T10:39:39.886Z,15.80
2023-01-09T10:40:39.874Z,18.70
2023-01-09T10:41:39.847Z,15.90
2023-01-09T10:42:39.857Z,14.10
2023-01-09T10:43:39.843Z,14.10
2023-01-09T10:44:39.836Z,10.90
2023-01-09T10:45:39.819Z,14.80
2023-01-09T10:46:39.822Z,15.40
2023-01-09T10:47:39.780Z,14.90
2023-01-09T10:48:39.829Z,8.80
2023-01-09T10:49:39.783Z,8.10
2023-01-09T10:50:39.766Z,7.70
2023-01-09T10:51:39.819Z,8.00
2023-01-09T10:52:46.283Z,7.20
2023-01-09T10:53:39.800Z,8.20
2023-01-09T10:54:39.736Z,8.60
2023-01-09T10:55:39.709Z,11.70
2023-01-09T10:56:39.704Z,14.20
2023-01-09T10:57:39.708Z,12.80
2023-01-09T10:58:39.744Z,10.20
2023-01-09T10:59:39.685Z,11.30
2023-01-09T11:00:39.670Z,10.90
2023-01-09T11:01:39.647Z,10.10
2023-01-09T11:02:39.766Z,11.20
2023-01-09T11:03:39.716Z,8.40
2023-01-09T11:04:39.614Z,7.00
2023-01-09T11:05:39.597Z,7.10
2023-01-09T11:06:39.598Z,8.00
2023-01-09T11:07:39.599Z,8.30
2023-01-09T11:08:39.578Z,9.10
2023-01-09T11:09:39.583Z,7.90
2023-01-09T11:10:39.586Z,8.10
2023-01-09T11:11:39.538Z,7.40
2023-01-09T11:12:39.547Z,7.10
2023-01-09T11:13:39.524Z,9.70
2023-01-09T11:14:39.543Z,12.80
2023-01-09T11:15:39.506Z,11.00
2023-01-09T11:16:39.495Z,10.50
2023-01-09T11:17:39.507Z,13.50
2023-01-09T11:18:39.489Z,13.40
2023-01-09T11:19:39.516Z,10.10
2023-01-09T11:20:39.449Z,10.00
2023-01-09T11:21:39.470Z,8.70
2023-01-09T11:22:39.439Z,9.40
2023-01-09T11:23:39.420Z,12.00
2023-01-09T11:24:39.437Z,10.70
2023-01-09T11:25:39.399Z,10.50
2023-01-09T11:26:39.437Z,11.90
2023-01-09T11:27:39.383Z,11.60
2023-01-09T11:28:39.398Z,8.80
2023-01-09T11:29:39.396Z,13.60
2023-01-09T11:30:39.362Z,12.20
2023-01-09T11:31:39.383Z,10.00
2023-01-09T11:32:39.329Z,9.20
2023-01-09T11:33:39.324Z,8.30
2023-01-09T11:34:46.978Z,5.90
2023-01-09T11:35:45.806Z,10.20
2023-01-09T11:36:39.311Z,11.00
2023-01-09T11:37:39.276Z,8.30
2023-01-09T11:38:39.280Z,7.80
2023-01-09T11:39:39.276Z,10.60
2023-01-09T11:40:39.255Z,10.10
2023-01-09T11:41:39.235Z,7.80
2023-01-09T11:42:39.260Z,9.70
2023-01-09T11:43:39.229Z,9.10
2023-01-09T11:44:39.282Z,9.50
2023-01-09T11:45:39.230Z,11.00
2023-01-09T11:46:39.206Z,12.40
2023-01-09T11:47:39.176Z,5.60
2023-01-09T11:48:39.172Z,5.10
2023-01-09T11:49:39.180Z,4.00
2023-01-09T11:50:39.212Z,3.80
2023-01-09T11:51:39.143Z,3.50
2023-01-09T11:52:39.142Z,3.40
2023-01-09T11:53:39.164Z,3.30
2023-01-09T11:54:39.134Z,3.30
2023-01-09T11:55:42.680Z,3.00
2023-01-09T11:56:39.142Z,3.50
2023-01-09T11:57:39.073Z,2.50
2023-01-09T11:58:39.089Z,2.80
2023-01-09T11:59:39.075Z,2.40
2023-01-09T12:00:39.096Z,2.80
2023-01-09T12:01:39.057Z,2.90
2023-01-09T12:02:39.032Z,2.50
2023-01-09T12:03:39.012Z,2.20
2023-01-09T12:04:38.997Z,2.40
2023-01-09T12:05:39.035Z,2.70
2023-01-09T12:06:38.988Z,2.40
2023-01-09T12:07:38.964Z,3.90
2023-01-09T12:08:38.985Z,2.50
2023-01-09T12:09:38.954Z,3.40
2023-01-09T12:10:38.958Z,2.80
2023-01-09T12:11:38.939Z,2.70
2023-01-09T12:12:38.947Z,4.50
2023-01-09T12:13:38.967Z,5.70
2023-01-09T12:14:38.923Z,4.70
2023-01-09T12:15:38.906Z,6.40
2023-01-09T12:16:38.918Z,4.50
2023-01-09T12:17:38.890Z,5.60
2023-01-09T12:18:38.871Z,6.70
2023-01-09T12:19:38.866Z,13.00
2023-01-09T12:20:38.869Z,12.30
2023-01-09T12:21:38.843Z,11.70
2023-01-09T12:22:38.867Z,10.80
2023-01-09T12:23:38.806Z,11.40
2023-01-09T12:24:38.808Z,6.70
2023-01-09T12:25:38.783Z,5.40
2023-01-09T12:26:38.773Z,4.90
2023-01-09T12:27:38.797Z,4.20
2023-01-09T12:28:38.792Z,4.00
2023-01-09T12:29:38.738Z,5.50
2023-01-09T12:30:38.726Z,5.40
2023-01-09T12:31:38.770Z,4.50
2023-01-09T12:32:38.743Z,4.30
2023-01-09T12:33:38.698Z,4.50
2023-01-09T12:34:38.698Z,4.50
2023-01-09T12:35:45.213Z,3.60
2023-01-09T12:36:46.509Z,4.40
2023-01-09T12:37:38.690Z,4.40
2023-01-09T12:38:38.650Z,4.40
2023-01-09T12:39:38.650Z,4.30
2023-01-09T12:40:38.647Z,4.30
2023-01-09T12:41:38.749Z,4.20
2023-01-09T12:42:38.639Z,3.60
2023-01-09T12:43:38.597Z,4.10
2023-01-09T12:44:38.612Z,3.70
2023-01-09T12:45:38.646Z,4.60
2023-01-09T12:46:38.611Z,5.20
2023-01-09T12:47:38.597Z,3.70
2023-01-09T12:48:38.557Z,4.30
2023-01-09T12:49:38.539Z,5.30
2023-01-09T12:50:38.537Z,4.50
2023-01-09T12:51:38.515Z,4.30
2023-01-09T12:52:38.540Z,3.80
2023-01-09T12:53:38.495Z,3.00
2023-01-09T12:54:38.499Z,3.70
2023-01-09T12:55:38.497Z,3.60
2023-01-09T12:56:38.470Z,4.00
2023-01-09T12:57:38.481Z,2.70
2023-01-09T12:58:38.447Z,1.80